sensor_id;sensor_type;location;lat;lon;timestamp;P1;durP1;ratioP1;P2;durP2;ratioP2
11042;SDS011;5574;48.786;10.120;2023-08-12T00:00:54;4.22;;;3.67;;
11042;SDS011;5574;48.786;10.120;2023-08-12T00:03:21;5.75;;;3.50;;
11042;SDS011;5574;48.786;10.120;2023-08-12T00:05:48;3.58;;;3.28;;
11042;SDS011;5574;48.786;10.120;2023-08-12T00:08:15;4.60;;;3.63;;
11042;SDS011;5574;48.786;10.120;2023-08-12T00:10:41;3.88;;;3.08;;
11042;SDS011;5574;48.786;10.120;2023-08-12T00:13:10;5.03;;;3.60;;
11042;SDS011;5574;48.786;10.120;2023-08-12T00:15:38;4.13;;;3.75;;
11042;SDS011;5574;48.786;10.120;2023-08-12T00:18:05;4.40;;;3.45;;
11042;SDS011;5574;48.786;10.120;2023-08-12T00:20:32;4.20;;;3.60;;
11042;SDS011;5574;48.786;10.120;2023-08-12T00:22:59;3.47;;;3.17;;
11042;SDS011;5574;48.786;10.120;2023-08-12T00:25:25;4.05;;;3.47;;
11042;SDS011;5574;48.786;10.120;2023-08-12T00:27:52;3.60;;;3.30;;
11042;SDS011;5574;48.786;10.120;2023-08-12T00:30:20;4.15;;;3.50;;
11042;SDS011;5574;48.786;10.120;2023-08-12T00:32:47;4.13;;;3.83;;
11042;SDS011;5574;48.786;10.120;2023-08-12T00:35:14;4.63;;;3.60;;
11042;SDS011;5574;48.786;10.120;2023-08-12T00:37:40;4.95;;;3.50;;
11042;SDS011;5574;48.786;10.120;2023-08-12T00:40:08;3.65;;;3.20;;
11042;SDS011;5574;48.786;10.120;2023-08-12T00:42:35;4.43;;;3.63;;
11042;SDS011;5574;48.786;10.120;2023-08-12T00:45:02;3.90;;;3.50;;
11042;SDS011;5574;48.786;10.120;2023-08-12T00:47:30;3.63;;;3.33;;
11042;SDS011;5574;48.786;10.120;2023-08-12T00:49:57;4.30;;;3.80;;
11042;SDS011;5574;48.786;10.120;2023-08-12T00:52:25;3.70;;;3.38;;
11042;SDS011;5574;48.786;10.120;2023-08-12T00:54:52;3.63;;;3.33;;
11042;SDS011;5574;48.786;10.120;2023-08-12T00:57:19;4.95;;;3.22;;
11042;SDS011;5574;48.786;10.120;2023-08-12T00:59:46;5.55;;;3.67;;
11042;SDS011;5574;48.786;10.120;2023-08-12T01:02:13;4.05;;;3.50;;
11042;SDS011;5574;48.786;10.120;2023-08-12T01:04:42;3.60;;;3.30;;
11042;SDS011;5574;48.786;10.120;2023-08-12T01:07:08;3.60;;;3.30;;
11042;SDS011;5574;48.786;10.120;2023-08-12T01:09:36;5.07;;;3.20;;
11042;SDS011;5574;48.786;10.120;2023-08-12T01:12:04;4.40;;;3.67;;
11042;SDS011;5574;48.786;10.120;2023-08-12T01:14:35;5.10;;;3.47;;
11042;SDS011;5574;48.786;10.120;2023-08-12T01:17:11;4.13;;;3.20;;
11042;SDS011;5574;48.786;10.120;2023-08-12T01:19:42;4.18;;;3.70;;
11042;SDS011;5574;48.786;10.120;2023-08-12T01:22:10;3.83;;;3.53;;
11042;SDS011;5574;48.786;10.120;2023-08-12T01:24:39;3.58;;;3.28;;
11042;SDS011;5574;48.786;10.120;2023-08-12T01:27:07;3.90;;;3.60;;
11042;SDS011;5574;48.786;10.120;2023-08-12T01:29:36;4.15;;;3.42;;
11042;SDS011;5574;48.786;10.120;2023-08-12T01:32:07;5.85;;;3.70;;
11042;SDS011;5574;48.786;10.120;2023-08-12T01:34:39;4.07;;;3.75;;
11042;SDS011;5574;48.786;10.120;2023-08-12T01:37:13;4.50;;;4.10;;
11042;SDS011;5574;48.786;10.120;2023-08-12T01:39:45;6.47;;;3.78;;
11042;SDS011;5574;48.786;10.120;2023-08-12T01:42:14;5.50;;;3.47;;
11042;SDS011;5574;48.786;10.120;2023-08-12T01:44:42;6.20;;;3.70;;
11042;SDS011;5574;48.786;10.120;2023-08-12T01:47:09;9.15;;;4.30;;
11042;SDS011;5574;48.786;10.120;2023-08-12T01:49:36;4.03;;;3.63;;
11042;SDS011;5574;48.786;10.120;2023-08-12T01:52:03;3.95;;;3.65;;
11042;SDS011;5574;48.786;10.120;2023-08-12T01:54:30;4.18;;;3.50;;
11042;SDS011;5574;48.786;10.120;2023-08-12T01:57:01;4.40;;;3.55;;
11042;SDS011;5574;48.786;10.120;2023-08-12T01:59:30;5.30;;;3.45;;
11042;SDS011;5574;48.786;10.120;2023-08-12T02:01:57;5.70;;;3.58;;
11042;SDS011;5574;48.786;10.120;2023-08-12T02:04:23;4.32;;;3.67;;
11042;SDS011;5574;48.786;10.120;2023-08-12T02:06:51;3.65;;;3.35;;
11042;SDS011;5574;48.786;10.120;2023-08-12T02:09:17;3.88;;;3.58;;
11042;SDS011;5574;48.786;10.120;2023-08-12T02:11:44;4.43;;;3.60;;
11042;SDS011;5574;48.786;10.120;2023-08-12T02:14:12;3.80;;;3.50;;
11042;SDS011;5574;48.786;10.120;2023-08-12T02:16:39;4.13;;;3.60;;
11042;SDS011;5574;48.786;10.120;2023-08-12T02:19:05;4.38;;;3.97;;
11042;SDS011;5574;48.786;10.120;2023-08-12T02:21:32;6.10;;;3.60;;
11042;SDS011;5574;48.786;10.120;2023-08-12T02:23:59;4.07;;;3.50;;
11042;SDS011;5574;48.786;10.120;2023-08-12T02:26:26;5.22;;;3.95;;
11042;SDS011;5574;48.786;10.120;2023-08-12T02:28:52;4.57;;;3.67;;
11042;SDS011;5574;48.786;10.120;2023-08-12T02:31:20;3.72;;;3.38;;
11042;SDS011;5574;48.786;10.120;2023-08-12T02:33:47;3.90;;;3.55;;
11042;SDS011;5574;48.786;10.120;2023-08-12T02:36:14;3.60;;;3.40;;
11042;SDS011;5574;48.786;10.120;2023-08-12T02:38:41;4.68;;;3.60;;
11042;SDS011;5574;48.786;10.120;2023-08-12T02:41:07;4.85;;;3.80;;
11042;SDS011;5574;48.786;10.120;2023-08-12T02:43:34;5.18;;;3.83;;
11042;SDS011;5574;48.786;10.120;2023-08-12T02:46:01;4.07;;;3.67;;
11042;SDS011;5574;48.786;10.120;2023-08-12T02:48:29;4.28;;;3.72;;
11042;SDS011;5574;48.786;10.120;2023-08-12T02:50:56;3.78;;;3.42;;
11042;SDS011;5574;48.786;10.120;2023-08-12T02:53:22;3.85;;;3.45;;
11042;SDS011;5574;48.786;10.120;2023-08-12T02:55:49;4.32;;;3.88;;
11042;SDS011;5574;48.786;10.120;2023-08-12T02:58:16;4.35;;;3.60;;
11042;SDS011;5574;48.786;10.120;2023-08-12T03:00:43;4.28;;;3.92;;
11042;SDS011;5574;48.786;10.120;2023-08-12T03:03:09;3.58;;;3.28;;
11042;SDS011;5574;48.786;10.120;2023-08-12T03:05:37;5.55;;;3.65;;
11042;SDS011;5574;48.786;10.120;2023-08-12T03:08:05;4.50;;;3.88;;
11042;SDS011;5574;48.786;10.120;2023-08-12T03:10:33;4.03;;;3.63;;
11042;SDS011;5574;48.786;10.120;2023-08-12T03:13:00;5.07;;;3.58;;
11042;SDS011;5574;48.786;10.120;2023-08-12T03:15:26;4.40;;;3.47;;
11042;SDS011;5574;48.786;10.120;2023-08-12T03:17:53;3.75;;;3.45;;
11042;SDS011;5574;48.786;10.120;2023-08-12T03:20:20;4.07;;;3.70;;
11042;SDS011;5574;48.786;10.120;2023-08-12T03:22:48;7.05;;;3.85;;
11042;SDS011;5574;48.786;10.120;2023-08-12T03:25:15;5.75;;;3.75;;
11042;SDS011;5574;48.786;10.120;2023-08-12T03:27:42;6.90;;;3.72;;
11042;SDS011;5574;48.786;10.120;2023-08-12T03:30:09;4.88;;;3.65;;
11042;SDS011;5574;48.786;10.120;2023-08-12T03:32:36;3.90;;;3.60;;
11042;SDS011;5574;48.786;10.120;2023-08-12T03:35:03;4.13;;;3.75;;
11042;SDS011;5574;48.786;10.120;2023-08-12T03:37:30;3.92;;;3.63;;
11042;SDS011;5574;48.786;10.120;2023-08-12T03:39:58;3.67;;;3.30;;
11042;SDS011;5574;48.786;10.120;2023-08-12T03:42:25;4.00;;;3.63;;
11042;SDS011;5574;48.786;10.120;2023-08-12T03:44:52;3.85;;;3.55;;
11042;SDS011;5574;48.786;10.120;2023-08-12T03:47:18;5.00;;;3.90;;
11042;SDS011;5574;48.786;10.120;2023-08-12T03:49:48;4.70;;;3.50;;
11042;SDS011;5574;48.786;10.120;2023-08-12T03:52:15;5.10;;;3.60;;
11042;SDS011;5574;48.786;10.120;2023-08-12T03:54:42;3.90;;;3.60;;
11042;SDS011;5574;48.786;10.120;2023-08-12T03:57:11;3.65;;;3.35;;
11042;SDS011;5574;48.786;10.120;2023-08-12T03:59:38;6.10;;;3.88;;
11042;SDS011;5574;48.786;10.120;2023-08-12T04:02:04;4.20;;;3.80;;
11042;SDS011;5574;48.786;10.120;2023-08-12T04:04:31;5.88;;;4.00;;
11042;SDS011;5574;48.786;10.120;2023-08-12T04:06:58;4.85;;;3.45;;
11042;SDS011;5574;48.786;10.120;2023-08-12T04:09:25;4.85;;;3.80;;
11042;SDS011;5574;48.786;10.120;2023-08-12T04:11:51;4.85;;;3.95;;
11042;SDS011;5574;48.786;10.120;2023-08-12T04:14:19;3.80;;;3.50;;
11042;SDS011;5574;48.786;10.120;2023-08-12T04:16:46;4.82;;;3.70;;
11042;SDS011;5574;48.786;10.120;2023-08-12T04:19:13;4.07;;;3.63;;
11042;SDS011;5574;48.786;10.120;2023-08-12T04:21:39;6.43;;;3.83;;
11042;SDS011;5574;48.786;10.120;2023-08-12T04:24:06;3.72;;;3.42;;
11042;SDS011;5574;48.786;10.120;2023-08-12T04:26:34;6.60;;;4.05;;
11042;SDS011;5574;48.786;10.120;2023-08-12T04:29:00;4.45;;;3.65;;
11042;SDS011;5574;48.786;10.120;2023-08-12T04:31:29;7.70;;;4.00;;
11042;SDS011;5574;48.786;10.120;2023-08-12T04:33:55;4.32;;;3.88;;
11042;SDS011;5574;48.786;10.120;2023-08-12T04:36:22;7.30;;;3.97;;
11042;SDS011;5574;48.786;10.120;2023-08-12T04:38:49;4.78;;;3.70;;
11042;SDS011;5574;48.786;10.120;2023-08-12T04:41:16;5.63;;;4.20;;
11042;SDS011;5574;48.786;10.120;2023-08-12T04:43:43;5.47;;;3.72;;
11042;SDS011;5574;48.786;10.120;2023-08-12T04:46:10;6.30;;;3.70;;
11042;SDS011;5574;48.786;10.120;2023-08-12T04:48:38;4.78;;;4.30;;
11042;SDS011;5574;48.786;10.120;2023-08-12T04:51:05;6.65;;;3.60;;
11042;SDS011;5574;48.786;10.120;2023-08-12T04:53:32;4.07;;;3.65;;
11042;SDS011;5574;48.786;10.120;2023-08-12T04:55:59;5.95;;;4.03;;
11042;SDS011;5574;48.786;10.120;2023-08-12T04:58:25;5.80;;;4.05;;
11042;SDS011;5574;48.786;10.120;2023-08-12T05:00:52;5.07;;;3.97;;
11042;SDS011;5574;48.786;10.120;2023-08-12T05:03:19;6.53;;;4.78;;
11042;SDS011;5574;48.786;10.120;2023-08-12T05:05:49;8.32;;;4.80;;
11042;SDS011;5574;48.786;10.120;2023-08-12T05:08:16;7.20;;;3.83;;
11042;SDS011;5574;48.786;10.120;2023-08-12T05:10:43;6.07;;;4.45;;
11042;SDS011;5574;48.786;10.120;2023-08-12T05:13:12;7.70;;;4.40;;
11042;SDS011;5574;48.786;10.120;2023-08-12T05:15:39;11.07;;;4.47;;
11042;SDS011;5574;48.786;10.120;2023-08-12T05:18:06;7.47;;;4.35;;
11042;SDS011;5574;48.786;10.120;2023-08-12T05:20:32;6.43;;;4.28;;
11042;SDS011;5574;48.786;10.120;2023-08-12T05:23:00;6.68;;;4.30;;
11042;SDS011;5574;48.786;10.120;2023-08-12T05:25:27;8.20;;;4.60;;
11042;SDS011;5574;48.786;10.120;2023-08-12T05:27:54;9.48;;;4.30;;
11042;SDS011;5574;48.786;10.120;2023-08-12T05:30:21;8.35;;;4.57;;
11042;SDS011;5574;48.786;10.120;2023-08-12T05:32:48;16.17;;;4.15;;
11042;SDS011;5574;48.786;10.120;2023-08-12T05:35:14;9.55;;;4.53;;
11042;SDS011;5574;48.786;10.120;2023-08-12T05:37:41;10.48;;;4.78;;
11042;SDS011;5574;48.786;10.120;2023-08-12T05:40:09;16.67;;;5.05;;
11042;SDS011;5574;48.786;10.120;2023-08-12T05:42:36;15.23;;;5.20;;
11042;SDS011;5574;48.786;10.120;2023-08-12T05:45:03;14.70;;;4.97;;
11042;SDS011;5574;48.786;10.120;2023-08-12T05:47:31;15.77;;;4.95;;
11042;SDS011;5574;48.786;10.120;2023-08-12T05:49:58;16.80;;;5.57;;
11042;SDS011;5574;48.786;10.120;2023-08-12T05:52:25;9.63;;;4.85;;
11042;SDS011;5574;48.786;10.120;2023-08-12T05:54:51;13.48;;;5.22;;
11042;SDS011;5574;48.786;10.120;2023-08-12T05:57:19;12.40;;;5.30;;
11042;SDS011;5574;48.786;10.120;2023-08-12T05:59:46;15.95;;;5.00;;
11042;SDS011;5574;48.786;10.120;2023-08-12T06:02:13;13.10;;;4.85;;
11042;SDS011;5574;48.786;10.120;2023-08-12T06:04:40;9.60;;;4.97;;
11042;SDS011;5574;48.786;10.120;2023-08-12T06:07:06;11.23;;;5.13;;
11042;SDS011;5574;48.786;10.120;2023-08-12T06:09:33;18.73;;;5.72;;
11042;SDS011;5574;48.786;10.120;2023-08-12T06:12:00;13.63;;;5.10;;
11042;SDS011;5574;48.786;10.120;2023-08-12T06:14:28;11.13;;;5.07;;
11042;SDS011;5574;48.786;10.120;2023-08-12T06:16:54;11.15;;;4.40;;
11042;SDS011;5574;48.786;10.120;2023-08-12T06:19:21;11.93;;;4.90;;
11042;SDS011;5574;48.786;10.120;2023-08-12T06:21:48;10.23;;;4.78;;
11042;SDS011;5574;48.786;10.120;2023-08-12T06:24:15;9.52;;;4.45;;
11042;SDS011;5574;48.786;10.120;2023-08-12T06:26:41;11.27;;;5.57;;
11042;SDS011;5574;48.786;10.120;2023-08-12T06:29:08;9.32;;;4.65;;
11042;SDS011;5574;48.786;10.120;2023-08-12T06:31:36;8.02;;;5.00;;
11042;SDS011;5574;48.786;10.120;2023-08-12T06:34:03;9.77;;;5.55;;
11042;SDS011;5574;48.786;10.120;2023-08-12T06:36:31;14.15;;;5.00;;
11042;SDS011;5574;48.786;10.120;2023-08-12T06:38:58;9.82;;;5.00;;
11042;SDS011;5574;48.786;10.120;2023-08-12T06:41:24;10.10;;;4.65;;
11042;SDS011;5574;48.786;10.120;2023-08-12T06:43:51;8.30;;;4.30;;
11042;SDS011;5574;48.786;10.120;2023-08-12T06:46:18;6.88;;;4.57;;
11042;SDS011;5574;48.786;10.120;2023-08-12T06:48:46;9.60;;;4.70;;
11042;SDS011;5574;48.786;10.120;2023-08-12T06:51:12;7.68;;;4.65;;
11042;SDS011;5574;48.786;10.120;2023-08-12T06:53:39;10.13;;;4.63;;
11042;SDS011;5574;48.786;10.120;2023-08-12T06:56:06;6.97;;;4.78;;
11042;SDS011;5574;48.786;10.120;2023-08-12T06:58:33;6.97;;;4.53;;
11042;SDS011;5574;48.786;10.120;2023-08-12T07:01:00;10.40;;;4.38;;
11042;SDS011;5574;48.786;10.120;2023-08-12T07:03:26;6.03;;;4.78;;
11042;SDS011;5574;48.786;10.120;2023-08-12T07:05:54;11.70;;;5.18;;
11042;SDS011;5574;48.786;10.120;2023-08-12T07:08:21;9.23;;;4.90;;
11042;SDS011;5574;48.786;10.120;2023-08-12T07:10:48;10.60;;;4.70;;
11042;SDS011;5574;48.786;10.120;2023-08-12T07:13:14;10.95;;;4.88;;
11042;SDS011;5574;48.786;10.120;2023-08-12T07:15:41;10.88;;;5.30;;
11042;SDS011;5574;48.786;10.120;2023-08-12T07:18:08;9.68;;;4.45;;
11042;SDS011;5574;48.786;10.120;2023-08-12T07:20:35;8.52;;;5.20;;
11042;SDS011;5574;48.786;10.120;2023-08-12T07:23:03;4.88;;;4.40;;
11042;SDS011;5574;48.786;10.120;2023-08-12T07:25:30;7.80;;;4.80;;
11042;SDS011;5574;48.786;10.120;2023-08-12T07:27:57;8.55;;;4.97;;
11042;SDS011;5574;48.786;10.120;2023-08-12T07:30:24;11.30;;;5.10;;
11042;SDS011;5574;48.786;10.120;2023-08-12T07:32:51;9.60;;;4.78;;
11042;SDS011;5574;48.786;10.120;2023-08-12T07:35:17;11.00;;;4.80;;
11042;SDS011;5574;48.786;10.120;2023-08-12T07:37:44;7.63;;;4.95;;
11042;SDS011;5574;48.786;10.120;2023-08-12T07:40:12;7.28;;;4.07;;
11042;SDS011;5574;48.786;10.120;2023-08-12T07:42:39;6.93;;;4.72;;
11042;SDS011;5574;48.786;10.120;2023-08-12T07:45:06;10.48;;;4.55;;
11042;SDS011;5574;48.786;10.120;2023-08-12T07:47:34;9.40;;;4.85;;
11042;SDS011;5574;48.786;10.120;2023-08-12T07:50:01;6.63;;;4.68;;
11042;SDS011;5574;48.786;10.120;2023-08-12T07:52:27;8.63;;;4.75;;
11042;SDS011;5574;48.786;10.120;2023-08-12T07:54:54;6.32;;;4.68;;
11042;SDS011;5574;48.786;10.120;2023-08-12T07:57:22;9.13;;;4.55;;
11042;SDS011;5574;48.786;10.120;2023-08-12T07:59:49;8.00;;;4.80;;
11042;SDS011;5574;48.786;10.120;2023-08-12T08:02:16;12.90;;;5.63;;
11042;SDS011;5574;48.786;10.120;2023-08-12T08:04:42;8.52;;;4.82;;
11042;SDS011;5574;48.786;10.120;2023-08-12T08:07:10;11.10;;;4.80;;
11042;SDS011;5574;48.786;10.120;2023-08-12T08:09:37;6.68;;;4.65;;
11042;SDS011;5574;48.786;10.120;2023-08-12T08:12:04;11.40;;;5.10;;
11042;SDS011;5574;48.786;10.120;2023-08-12T08:14:32;9.15;;;5.10;;
11042;SDS011;5574;48.786;10.120;2023-08-12T08:16:59;9.95;;;4.60;;
11042;SDS011;5574;48.786;10.120;2023-08-12T08:19:25;10.15;;;4.40;;
11042;SDS011;5574;48.786;10.120;2023-08-12T08:21:52;6.45;;;4.60;;
11042;SDS011;5574;48.786;10.120;2023-08-12T08:24:19;9.65;;;5.25;;
11042;SDS011;5574;48.786;10.120;2023-08-12T08:26:46;7.30;;;4.53;;
11042;SDS011;5574;48.786;10.120;2023-08-12T08:29:12;5.38;;;4.40;;
11042;SDS011;5574;48.786;10.120;2023-08-12T08:31:40;143.43;;;10.05;;
11042;SDS011;5574;48.786;10.120;2023-08-12T08:34:07;9.30;;;4.53;;
11042;SDS011;5574;48.786;10.120;2023-08-12T08:36:34;9.00;;;4.18;;
11042;SDS011;5574;48.786;10.120;2023-08-12T08:39:01;5.75;;;4.28;;
11042;SDS011;5574;48.786;10.120;2023-08-12T08:41:29;5.03;;;4.53;;
11042;SDS011;5574;48.786;10.120;2023-08-12T08:43:58;5.95;;;4.90;;
11042;SDS011;5574;48.786;10.120;2023-08-12T08:46:28;9.25;;;4.90;;
11042;SDS011;5574;48.786;10.120;2023-08-12T08:48:56;8.60;;;4.75;;
11042;SDS011;5574;48.786;10.120;2023-08-12T08:51:25;7.65;;;4.60;;
11042;SDS011;5574;48.786;10.120;2023-08-12T08:53:53;5.20;;;4.70;;
11042;SDS011;5574;48.786;10.120;2023-08-12T08:56:20;21.30;;;5.00;;
11042;SDS011;5574;48.786;10.120;2023-08-12T08:58:47;7.53;;;4.60;;
11042;SDS011;5574;48.786;10.120;2023-08-12T09:01:14;5.28;;;4.32;;
11042;SDS011;5574;48.786;10.120;2023-08-12T09:03:43;6.63;;;4.40;;
11042;SDS011;5574;48.786;10.120;2023-08-12T09:06:12;5.97;;;4.45;;
11042;SDS011;5574;48.786;10.120;2023-08-12T09:08:39;6.40;;;5.03;;
11042;SDS011;5574;48.786;10.120;2023-08-12T09:11:10;4.95;;;4.43;;
11042;SDS011;5574;48.786;10.120;2023-08-12T09:13:39;5.30;;;4.53;;
11042;SDS011;5574;48.786;10.120;2023-08-12T09:16:06;4.47;;;4.00;;
11042;SDS011;5574;48.786;10.120;2023-08-12T09:18:32;6.50;;;4.10;;
11042;SDS011;5574;48.786;10.120;2023-08-12T09:21:00;6.05;;;4.40;;
11042;SDS011;5574;48.786;10.120;2023-08-12T09:23:28;5.20;;;3.97;;
11042;SDS011;5574;48.786;10.120;2023-08-12T09:26:00;5.25;;;3.97;;
11042;SDS011;5574;48.786;10.120;2023-08-12T09:28:27;7.32;;;4.45;;
11042;SDS011;5574;48.786;10.120;2023-08-12T09:30:55;6.60;;;4.43;;
11042;SDS011;5574;48.786;10.120;2023-08-12T09:33:23;6.88;;;4.10;;
11042;SDS011;5574;48.786;10.120;2023-08-12T09:35:51;4.38;;;3.97;;
11042;SDS011;5574;48.786;10.120;2023-08-12T09:38:19;4.85;;;4.22;;
11042;SDS011;5574;48.786;10.120;2023-08-12T09:40:51;11.32;;;4.60;;
11042;SDS011;5574;48.786;10.120;2023-08-12T09:43:18;5.78;;;4.03;;
11042;SDS011;5574;48.786;10.120;2023-08-12T09:45:50;4.38;;;3.97;;
11042;SDS011;5574;48.786;10.120;2023-08-12T09:48:16;4.55;;;4.15;;
11042;SDS011;5574;48.786;10.120;2023-08-12T09:50:43;4.30;;;3.70;;
11042;SDS011;5574;48.786;10.120;2023-08-12T09:53:10;5.43;;;4.00;;
11042;SDS011;5574;48.786;10.120;2023-08-12T09:55:38;4.15;;;3.80;;
11042;SDS011;5574;48.786;10.120;2023-08-12T09:58:07;3.88;;;3.50;;
11042;SDS011;5574;48.786;10.120;2023-08-12T10:00:37;6.47;;;3.83;;
11042;SDS011;5574;48.786;10.120;2023-08-12T10:03:06;4.05;;;3.50;;
11042;SDS011;5574;48.786;10.120;2023-08-12T10:05:33;3.63;;;3.33;;
11042;SDS011;5574;48.786;10.120;2023-08-12T10:08:00;5.55;;;3.58;;
11042;SDS011;5574;48.786;10.120;2023-08-12T10:10:29;4.20;;;3.67;;
11042;SDS011;5574;48.786;10.120;2023-08-12T10:12:57;3.90;;;3.50;;
11042;SDS011;5574;48.786;10.120;2023-08-12T10:15:26;4.82;;;3.65;;
11042;SDS011;5574;48.786;10.120;2023-08-12T10:17:53;3.60;;;3.30;;
11042;SDS011;5574;48.786;10.120;2023-08-12T10:20:23;4.00;;;3.53;;
11042;SDS011;5574;48.786;10.120;2023-08-12T10:22:51;4.60;;;3.60;;
11042;SDS011;5574;48.786;10.120;2023-08-12T10:25:18;3.83;;;3.40;;
11042;SDS011;5574;48.786;10.120;2023-08-12T10:27:47;3.72;;;3.42;;
11042;SDS011;5574;48.786;10.120;2023-08-12T10:30:13;3.92;;;3.58;;
11042;SDS011;5574;48.786;10.120;2023-08-12T10:32:41;4.10;;;3.78;;
11042;SDS011;5574;48.786;10.120;2023-08-12T10:35:09;4.10;;;3.70;;
11042;SDS011;5574;48.786;10.120;2023-08-12T10:37:36;6.32;;;4.05;;
11042;SDS011;5574;48.786;10.120;2023-08-12T10:40:03;7.18;;;3.80;;
11042;SDS011;5574;48.786;10.120;2023-08-12T10:42:42;4.35;;;3.60;;
11042;SDS011;5574;48.786;10.120;2023-08-12T10:45:10;3.95;;;3.65;;
11042;SDS011;5574;48.786;10.120;2023-08-12T10:47:40;4.32;;;3.92;;
11042;SDS011;5574;48.786;10.120;2023-08-12T10:50:16;4.53;;;4.18;;
11042;SDS011;5574;48.786;10.120;2023-08-12T10:52:44;5.00;;;4.55;;
11042;SDS011;5574;48.786;10.120;2023-08-12T10:55:20;4.78;;;4.25;;
11042;SDS011;5574;48.786;10.120;2023-08-12T10:57:48;4.75;;;4.38;;
11042;SDS011;5574;48.786;10.120;2023-08-12T11:00:15;4.60;;;4.20;;
11042;SDS011;5574;48.786;10.120;2023-08-12T11:02:48;4.38;;;4.00;;
11042;SDS011;5574;48.786;10.120;2023-08-12T11:05:15;8.20;;;4.70;;
11042;SDS011;5574;48.786;10.120;2023-08-12T11:07:44;4.65;;;4.00;;
11042;SDS011;5574;48.786;10.120;2023-08-12T11:10:13;4.50;;;4.20;;
11042;SDS011;5574;48.786;10.120;2023-08-12T11:12:41;4.78;;;4.20;;
11042;SDS011;5574;48.786;10.120;2023-08-12T11:15:13;9.07;;;4.63;;
11042;SDS011;5574;48.786;10.120;2023-08-12T11:17:40;6.10;;;4.57;;
11042;SDS011;5574;48.786;10.120;2023-08-12T11:20:10;6.65;;;4.50;;
11042;SDS011;5574;48.786;10.120;2023-08-12T11:22:38;4.38;;;3.97;;
11042;SDS011;5574;48.786;10.120;2023-08-12T11:25:06;5.72;;;3.83;;
11042;SDS011;5574;48.786;10.120;2023-08-12T11:27:36;6.78;;;3.88;;
11042;SDS011;5574;48.786;10.120;2023-08-12T11:30:04;4.25;;;3.83;;
11042;SDS011;5574;48.786;10.120;2023-08-12T11:32:32;4.22;;;3.85;;
11042;SDS011;5574;48.786;10.120;2023-08-12T11:34:58;4.22;;;3.88;;
11042;SDS011;5574;48.786;10.120;2023-08-12T11:37:27;6.15;;;4.07;;
11042;SDS011;5574;48.786;10.120;2023-08-12T11:39:54;5.35;;;3.90;;
11042;SDS011;5574;48.786;10.120;2023-08-12T11:42:20;3.80;;;3.50;;
11042;SDS011;5574;48.786;10.120;2023-08-12T11:44:47;4.57;;;3.70;;
11042;SDS011;5574;48.786;10.120;2023-08-12T11:47:14;4.20;;;3.78;;
11042;SDS011;5574;48.786;10.120;2023-08-12T11:49:41;4.65;;;4.25;;
11042;SDS011;5574;48.786;10.120;2023-08-12T11:52:08;6.70;;;3.88;;
11042;SDS011;5574;48.786;10.120;2023-08-12T11:54:38;4.20;;;3.80;;
11042;SDS011;5574;48.786;10.120;2023-08-12T11:57:05;6.20;;;4.40;;
11042;SDS011;5574;48.786;10.120;2023-08-12T11:59:32;5.20;;;3.97;;
11042;SDS011;5574;48.786;10.120;2023-08-12T12:02:01;4.57;;;3.83;;
11042;SDS011;5574;48.786;10.120;2023-08-12T12:04:28;4.22;;;3.85;;
11042;SDS011;5574;48.786;10.120;2023-08-12T12:06:56;4.40;;;4.10;;
11042;SDS011;5574;48.786;10.120;2023-08-12T12:09:24;4.97;;;4.32;;
11042;SDS011;5574;48.786;10.120;2023-08-12T12:11:53;4.30;;;3.90;;
11042;SDS011;5574;48.786;10.120;2023-08-12T12:14:20;5.25;;;3.90;;
11042;SDS011;5574;48.786;10.120;2023-08-12T12:16:47;4.38;;;3.97;;
11042;SDS011;5574;48.786;10.120;2023-08-12T12:19:16;4.80;;;4.40;;
11042;SDS011;5574;48.786;10.120;2023-08-12T12:21:44;4.90;;;4.25;;
11042;SDS011;5574;48.786;10.120;2023-08-12T12:24:12;9.05;;;4.35;;
11042;SDS011;5574;48.786;10.120;2023-08-12T12:26:39;5.05;;;4.55;;
11042;SDS011;5574;48.786;10.120;2023-08-12T12:29:07;4.18;;;3.78;;
11042;SDS011;5574;48.786;10.120;2023-08-12T12:31:36;4.32;;;3.92;;
11042;SDS011;5574;48.786;10.120;2023-08-12T12:34:03;5.50;;;4.25;;
11042;SDS011;5574;48.786;10.120;2023-08-12T12:36:31;4.32;;;3.65;;
11042;SDS011;5574;48.786;10.120;2023-08-12T12:38:58;6.20;;;3.90;;
11042;SDS011;5574;48.786;10.120;2023-08-12T12:41:25;26.65;;;5.40;;
11042;SDS011;5574;48.786;10.120;2023-08-12T12:43:51;4.63;;;4.18;;
11042;SDS011;5574;48.786;10.120;2023-08-12T12:46:19;4.97;;;4.25;;
11042;SDS011;5574;48.786;10.120;2023-08-12T12:48:46;4.50;;;4.07;;
11042;SDS011;5574;48.786;10.120;2023-08-12T12:51:13;6.13;;;3.60;;
11042;SDS011;5574;48.786;10.120;2023-08-12T12:53:40;4.53;;;3.83;;
11042;SDS011;5574;48.786;10.120;2023-08-12T12:56:07;3.70;;;3.38;;
11042;SDS011;5574;48.786;10.120;2023-08-12T12:58:34;12.32;;;3.45;;
11042;SDS011;5574;48.786;10.120;2023-08-12T13:01:02;5.63;;;3.30;;
11042;SDS011;5574;48.786;10.120;2023-08-12T13:03:31;3.30;;;2.80;;
11042;SDS011;5574;48.786;10.120;2023-08-12T13:05:59;3.28;;;2.92;;
11042;SDS011;5574;48.786;10.120;2023-08-12T13:08:27;4.97;;;2.78;;
11042;SDS011;5574;48.786;10.120;2023-08-12T13:10:54;2.90;;;2.70;;
11042;SDS011;5574;48.786;10.120;2023-08-12T13:13:21;2.92;;;2.70;;
11042;SDS011;5574;48.786;10.120;2023-08-12T13:15:48;5.13;;;3.15;;
11042;SDS011;5574;48.786;10.120;2023-08-12T13:18:15;3.72;;;2.80;;
11042;SDS011;5574;48.786;10.120;2023-08-12T13:20:43;3.22;;;3.03;;
11042;SDS011;5574;48.786;10.120;2023-08-12T13:23:09;5.80;;;3.40;;
11042;SDS011;5574;48.786;10.120;2023-08-12T13:25:37;5.13;;;3.38;;
11042;SDS011;5574;48.786;10.120;2023-08-12T13:28:04;5.80;;;3.15;;
11042;SDS011;5574;48.786;10.120;2023-08-12T13:30:31;5.03;;;3.60;;
11042;SDS011;5574;48.786;10.120;2023-08-12T13:32:58;4.75;;;3.33;;
11042;SDS011;5574;48.786;10.120;2023-08-12T13:35:24;11.85;;;4.70;;
11042;SDS011;5574;48.786;10.120;2023-08-12T13:37:52;2.92;;;2.50;;
11042;SDS011;5574;48.786;10.120;2023-08-12T13:40:19;13.77;;;3.92;;
11042;SDS011;5574;48.786;10.120;2023-08-12T13:42:46;4.43;;;2.13;;
11042;SDS011;5574;48.786;10.120;2023-08-12T13:45:13;4.80;;;2.50;;
11042;SDS011;5574;48.786;10.120;2023-08-12T13:47:40;3.95;;;2.15;;
11042;SDS011;5574;48.786;10.120;2023-08-12T13:50:07;2.47;;;2.10;;
11042;SDS011;5574;48.786;10.120;2023-08-12T13:52:34;2.78;;;2.40;;
11042;SDS011;5574;48.786;10.120;2023-08-12T13:55:02;4.63;;;3.22;;
11042;SDS011;5574;48.786;10.120;2023-08-12T13:57:29;3.03;;;2.63;;
11042;SDS011;5574;48.786;10.120;2023-08-12T13:59:56;2.88;;;2.65;;
11042;SDS011;5574;48.786;10.120;2023-08-12T14:02:23;3.38;;;2.72;;
11042;SDS011;5574;48.786;10.120;2023-08-12T14:04:50;4.07;;;2.80;;
11042;SDS011;5574;48.786;10.120;2023-08-12T14:07:17;4.18;;;2.70;;
11042;SDS011;5574;48.786;10.120;2023-08-12T14:09:46;2.92;;;2.58;;
11042;SDS011;5574;48.786;10.120;2023-08-12T14:12:14;3.35;;;2.72;;
11042;SDS011;5574;48.786;10.120;2023-08-12T14:14:41;4.30;;;2.95;;
11042;SDS011;5574;48.786;10.120;2023-08-12T14:17:07;3.30;;;3.00;;
11042;SDS011;5574;48.786;10.120;2023-08-12T14:19:38;4.40;;;3.03;;
11042;SDS011;5574;48.786;10.120;2023-08-12T14:22:05;4.00;;;3.20;;
11042;SDS011;5574;48.786;10.120;2023-08-12T14:24:32;3.63;;;3.30;;
11042;SDS011;5574;48.786;10.120;2023-08-12T14:26:59;6.13;;;3.50;;
11042;SDS011;5574;48.786;10.120;2023-08-12T14:29:27;3.90;;;3.20;;
11042;SDS011;5574;48.786;10.120;2023-08-12T14:31:54;3.95;;;3.20;;
11042;SDS011;5574;48.786;10.120;2023-08-12T14:34:21;3.83;;;3.13;;
11042;SDS011;5574;48.786;10.120;2023-08-12T14:36:47;4.28;;;3.25;;
11042;SDS011;5574;48.786;10.120;2023-08-12T14:39:14;4.22;;;3.28;;
11042;SDS011;5574;48.786;10.120;2023-08-12T14:41:41;5.18;;;3.47;;
11042;SDS011;5574;48.786;10.120;2023-08-12T14:44:07;3.72;;;3.10;;
11042;SDS011;5574;48.786;10.120;2023-08-12T14:46:35;3.92;;;3.20;;